Time;durP1;ratioP1;P1;durP2;ratioP2;P2;SDS_P1;SDS_P2;PMS_P1;PMS_P2;Temp;Humidity;BMP_temperature;BMP_pressure;BME280_temperature;BME280_humidity;BME280_pressure;Samples;Min_cycle;Max_cycle;Signal;HPM_P1;HPM_P2
2023/02/03 00:00:23;;;;;;;9.27;3.40;;;;;;;7.81;100.00;101485.34;5056696;28;20405;-77
2023/02/03 00:02:49;;;;;;;7.68;3.60;;;;;;;7.75;100.00;101493.50;5056398;28;20253;-77
2023/02/03 00:05:17;;;;;;;6.22;3.78;;;;;;;7.71;100.00;101487.31;5052312;28;20240;-78
2023/02/03 00:07:45;;;;;;;4.05;3.33;;;;;;;7.65;100.00;101471.31;5040864;28;20212;-78
2023/02/03 00:10:12;;;;;;;4.78;3.35;;;;;;;7.72;100.00;101451.53;5046524;28;20220;-78
2023/02/03 00:12:40;;;;;;;6.70;3.65;;;;;;;7.66;100.00;101438.22;5046997;28;20291;-78
2023/02/03 00:15:08;;;;;;;11.82;3.90;;;;;;;7.60;100.00;101424.03;5042668;28;20634;-78
2023/02/03 00:17:34;;;;;;;5.15;3.30;;;;;;;7.59;100.00;101417.78;5050612;28;20201;-79
2023/02/03 00:20:01;;;;;;;6.90;3.72;;;;;;;7.62;100.00;101427.56;5042614;28;20225;-77
2023/02/03 00:22:27;;;;;;;5.25;3.20;;;;;;;7.62;100.00;101433.84;5041688;28;20421;-78
2023/02/03 00:24:55;;;;;;;6.93;3.30;;;;;;;7.67;100.00;101431.09;5041801;28;20240;-79
2023/02/03 00:27:22;;;;;;;6.45;2.83;;;;;;;7.65;100.00;101412.34;5042047;28;20211;-77
2023/02/03 00:29:48;;;;;;;4.25;2.85;;;;;;;7.67;100.00;101431.97;5052438;28;20236;-77
2023/02/03 00:32:15;;;;;;;5.30;3.00;;;;;;;7.65;100.00;101431.09;5052548;28;20267;-77
2023/02/03 00:34:41;;;;;;;5.25;3.30;;;;;;;7.64;100.00;101436.47;5052831;28;20209;-77
2023/02/03 00:37:08;;;;;;;5.05;3.05;;;;;;;7.62;100.00;101449.03;5051284;28;20225;-78
2023/02/03 00:39:36;;;;;;;4.50;2.80;;;;;;;7.57;100.00;101450.91;5050370;28;20650;-77
2023/02/03 00:42:05;;;;;;;6.65;4.15;;;;;;;7.59;100.00;101449.97;5050631;28;20213;-76
2023/02/03 00:44:31;;;;;;;4.38;3.20;;;;;;;7.63;100.00;101446.31;5050345;28;20231;-77
2023/02/03 00:46:58;;;;;;;5.90;3.28;;;;;;;7.64;100.00;101450.78;5048123;28;20312;-77
2023/02/03 00:49:25;;;;;;;6.68;3.22;;;;;;;7.63;100.00;101446.31;5041963;28;20239;-77
2023/02/03 00:51:52;;;;;;;5.38;3.00;;;;;;;7.63;100.00;101445.44;5041932;28;20280;-80
2023/02/03 00:54:18;;;;;;;5.40;2.70;;;;;;;7.57;100.00;101446.41;5043073;28;20657;-77
2023/02/03 00:56:45;;;;;;;5.55;2.55;;;;;;;7.55;100.00;101425.91;5041108;28;20296;-79
2023/02/03 00:59:13;;;;;;;4.47;2.88;;;;;;;7.52;100.00;101403.59;5040465;28;20587;-81
2023/02/03 01:01:39;;;;;;;5.93;3.15;;;;;;;7.52;100.00;101416.13;5040498;28;20232;-78
2023/02/03 01:04:06;;;;;;;5.20;3.20;;;;;;;7.55;100.00;101383.91;5040855;28;20201;-79
2023/02/03 01:06:33;;;;;;;5.10;3.15;;;;;;;7.48;100.00;101361.69;5041070;28;20216;-78
2023/02/03 01:09:02;;;;;;;4.28;3.08;;;;;;;7.47;100.00;101364.41;5040886;28;20228;-78
2023/02/03 01:11:28;;;;;;;4.90;2.75;;;;;;;7.54;100.00;101360.69;5041280;28;20236;-77
2023/02/03 01:13:58;;;;;;;5.03;2.90;;;;;;;7.56;100.00;101372.28;5043151;28;20220;-78
2023/02/03 01:16:26;;;;;;;6.85;2.95;;;;;;;7.58;100.00;101391.91;5046358;28;20193;-77
2023/02/03 01:18:52;;;;;;;10.10;3.15;;;;;;;7.61;100.00;101402.56;5038935;28;20205;-78
2023/02/03 01:21:21;;;;;;;4.75;2.40;;;;;;;7.69;100.00;101387.25;5038447;28;20226;-78
2023/02/03 01:23:48;;;;;;;4.20;2.30;;;;;;;7.74;100.00;101389.84;5039313;28;20545;-78
2023/02/03 01:26:17;;;;;;;3.75;2.47;;;;;;;7.73;100.00;101383.59;5038449;28;20207;-77
2023/02/03 01:28:44;;;;;;;5.88;3.30;;;;;;;7.70;100.00;101380.94;5039346;28;20315;-77
2023/02/03 01:31:13;;;;;;;5.07;3.00;;;;;;;7.77;100.00;101378.16;5039760;28;20591;-77
2023/02/03 01:33:41;;;;;;;4.00;2.90;;;;;;;7.77;100.00;101383.53;5039489;28;20602;-77
2023/02/03 01:36:09;;;;;;;3.30;2.13;;;;;;;7.75;100.00;101385.34;5039865;28;20213;-78
2023/02/03 01:38:36;;;;;;;3.95;2.88;;;;;;;7.75;100.00;101396.97;5039295;28;20531;-78
2023/02/03 01:41:03;;;;;;;4.78;2.30;;;;;;;7.75;100.00;101388.91;5039306;28;20236;-79
2023/02/03 01:43:31;;;;;;;4.30;2.50;;;;;;;7.75;100.00;101380.88;5042610;28;20623;-77
2023/02/03 01:45:58;;;;;;;6.70;2.38;;;;;;;7.78;100.00;101383.50;5047623;28;20200;-76
2023/02/03 01:48:24;;;;;;;4.00;2.67;;;;;;;7.77;100.00;101378.16;5043036;28;20595;-75
2023/02/03 01:50:53;;;;;;;3.28;2.42;;;;;;;7.80;100.00;101378.09;5040816;28;20230;-79
2023/02/03 01:53:19;;;;;;;3.63;2.40;;;;;;;7.78;100.00;101371.88;5042414;28;20205;-78
2023/02/03 01:55:49;;;;;;;2.83;2.33;;;;;;;7.81;100.00;101371.84;5045011;28;20208;-76
2023/02/03 01:58:20;;;;;;;3.97;2.53;;;;;;;7.77;100.00;101370.13;5042402;28;20212;-76
2023/02/03 02:00:49;;;;;;;2.88;2.53;;;;;;;7.72;100.00;101364.84;5038176;28;20288;-78
2023/02/03 02:03:18;;;;;;;5.70;2.83;;;;;;;7.72;100.00;101372.88;5040037;28;20211;-78
2023/02/03 02:05:50;;;;;;;3.17;2.38;;;;;;;7.68;100.00;101366.69;5042449;28;20211;-78
2023/02/03 02:08:21;;;;;;;2.95;2.20;;;;;;;7.66;100.00;101356.91;5039734;28;20185;-77
2023/02/03 02:10:48;;;;;;;3.80;2.55;;;;;;;7.67;100.00;101356.88;5039852;28;20274;-78
2023/02/03 02:13:17;;;;;;;3.35;2.38;;;;;;;7.67;100.00;101354.19;5039417;28;20211;-77
2023/02/03 02:15:51;;;;;;;4.68;2.40;;;;;;;7.63;100.00;101354.28;5037624;28;20607;-77
2023/02/03 02:18:43;;;;;;;3.78;2.45;;;;;;;7.68;100.00;101341.66;5037404;28;20189;-78
2023/02/03 02:21:48;;;;;;;3.70;1.85;;;;;;;7.73;100.00;101361.22;5037864;28;20225;-77
2023/02/03 02:24:39;;;;;;;3.95;1.98;;;;;;;7.73;100.00;101364.81;5037378;28;20184;-77
2023/02/03 02:27:09;;;;;;;3.40;2.30;;;;;;;7.69;100.00;101370.28;5040486;28;20204;-77
2023/02/03 02:30:14;;;;;;;4.53;2.97;;;;;;;7.71;100.00;101377.38;5038848;28;20234;-78
2023/02/03 02:32:53;;;;;;;3.90;2.10;;;;;;;7.73;100.00;101394.31;5038349;28;20208;-78
2023/02/03 02:35:30;;;;;;;6.30;2.40;;;;;;;7.72;100.00;101395.22;5039534;28;20199;-77
2023/02/03 02:38:03;;;;;;;5.72;1.95;;;;;;;7.72;100.00;101387.16;5037644;28;20189;-78
2023/02/03 02:40:35;;;;;;;2.03;1.50;;;;;;;7.76;100.00;101371.94;5038089;28;20231;-79
2023/02/03 02:43:09;;;;;;;3.15;1.90;;;;;;;7.75;100.00;101390.72;5037876;28;20253;-78
2023/02/03 02:45:43;;;;;;;3.88;1.95;;;;;;;7.75;100.00;101390.72;5036862;28;20688;-76
2023/02/03 02:48:18;;;;;;;2.75;2.15;;;;;;;7.77;100.00;101396.94;5036840;28;20257;-77
2023/02/03 02:50:51;;;;;;;3.15;2.35;;;;;;;7.78;100.00;101404.97;5044995;28;20227;-76
2023/02/03 02:53:20;;;;;;;3.17;1.73;;;;;;;7.80;100.00;101397.78;5044461;28;20307;-77
2023/02/03 02:55:48;;;;;;;4.00;2.10;;;;;;;7.84;100.00;101402.16;5044804;28;20205;-78
2023/02/03 02:58:18;;;;;;;2.20;1.60;;;;;;;7.88;100.00;101414.59;5044103;28;20209;-77
2023/02/03 03:00:46;;;;;;;2.42;1.50;;;;;;;7.88;100.00;101413.72;5042377;28;20217;-79
2023/02/03 03:03:16;;;;;;;2.95;1.85;;;;;;;7.96;100.00;101408.22;5042995;28;20198;-78
2023/02/03 03:05:48;;;;;;;6.38;1.85;;;;;;;7.99;100.00;101400.13;5041907;28;20266;-78
2023/02/03 03:08:17;;;;;;;3.53;1.65;;;;;;;8.00;100.00;101393.81;5041448;28;20190;-78
2023/02/03 03:10:45;;;;;;;2.70;1.38;;;;;;;7.99;100.00;101384.91;5042338;28;20276;-76
2023/02/03 03:13:17;;;;;;;4.03;1.40;;;;;;;8.00;100.00;101388.47;5040256;28;20204;-77
2023/02/03 03:15:45;;;;;;;2.25;1.50;;;;;;;7.96;100.00;101387.66;5042049;28;20583;-78
2023/02/03 03:18:18;;;;;;;2.72;1.65;;;;;;;7.99;100.00;101384.03;5040703;28;20530;-77
2023/02/03 03:20:48;;;;;;;3.80;2.10;;;;;;;7.93;100.00;101387.69;5040715;28;20234;-78
2023/02/03 03:23:20;;;;;;;3.22;2.13;;;;;;;7.90;100.00;101390.44;5040923;28;20211;-79
2023/02/03 03:25:51;;;;;;;3.35;1.95;;;;;;;7.90;100.00;101409.22;5041767;28;20314;-78
2023/02/03 03:28:25;;;;;;;2.45;1.55;;;;;;;7.81;100.00;101394.16;5040550;28;20196;-78
2023/02/03 03:30:52;;;;;;;5.20;1.75;;;;;;;7.79;100.00;101387.06;5043880;28;20607;-78
2023/02/03 03:33:21;;;;;;;4.07;2.00;;;;;;;7.65;100.00;101382.84;5041013;28;20569;-77
2023/02/03 03:35:57;;;;;;;3.35;2.10;;;;;;;7.62;100.00;101369.50;5045683;28;20205;-77
2023/02/03 03:38:31;;;;;;;3.00;1.73;;;;;;;7.60;100.00;101355.22;5050960;28;20248;-77
2023/02/03 03:41:05;;;;;;;4.03;2.10;;;;;;;7.63;100.00;101354.28;5068714;22;20241;-75
2023/02/03 03:43:35;;;;;;;3.15;1.98;;;;;;;7.64;100.00;101351.59;5080361;28;20226;-75
2023/02/03 03:46:07;;;;;;;2.65;1.92;;;;;;;7.67;100.00;101338.13;5075544;28;20208;-74
2023/02/03 03:48:40;;;;;;;1.90;1.58;;;;;;;7.77;100.00;101340.63;5074945;28;20190;-75
2023/02/03 03:51:12;;;;;;;2.75;1.58;;;;;;;7.87;100.00;101347.59;5066720;28;20271;-74
2023/02/03 03:53:41;;;;;;;3.92;1.48;;;;;;;7.84;100.00;101358.38;5055370;28;20623;-74
2023/02/03 03:56:14;;;;;;;2.58;1.60;;;;;;;7.82;100.00;101371.78;5055900;28;20286;-75
2023/02/03 03:58:45;;;;;;;2.70;1.80;;;;;;;7.84;100.00;101380.69;5054843;28;20196;-74
2023/02/03 04:01:15;;;;;;;3.25;2.13;;;;;;;7.84;100.00;101369.09;5054886;28;20228;-75
2023/02/03 04:03:46;;;;;;;3.08;2.10;;;;;;;7.82;100.00;101354.81;5055054;28;20569;-76
2023/02/03 04:06:13;;;;;;;2.50;1.55;;;;;;;7.86;100.00;101361.91;5055604;28;20572;-74
2023/02/03 04:08:40;;;;;;;3.10;1.33;;;;;;;7.89;100.00;101360.06;5054257;28;20561;-73
2023/02/03 04:11:07;;;;;;;4.13;1.70;;;;;;;7.84;100.00;101342.28;5055905;28;20228;-76
2023/02/03 04:13:33;;;;;;;2.13;1.40;;;;;;;7.88;100.00;101360.97;5057237;28;20337;-76
2023/02/03 04:16:00;;;;;;;5.30;2.17;;;;;;;7.87;100.00;101361.00;5061274;28;20266;-75
2023/02/03 04:18:26;;;;;;;2.35;1.52;;;;;;;7.87;100.00;101375.28;5059132;28;20200;-74
2023/02/03 04:20:54;;;;;;;2.35;1.55;;;;;;;7.88;100.00;101355.59;5058747;28;20224;-74
2023/02/03 04:23:21;;;;;;;2.47;1.90;;;;;;;7.86;100.00;101372.63;5059051;28;20205;-74
2023/02/03 04:25:47;;;;;;;3.80;1.63;;;;;;;7.86;100.00;101383.38;5057388;28;20229;-75
2023/02/03 04:28:14;;;;;;;2.55;1.63;;;;;;;7.88;100.00;101376.16;5055675;28;20579;-76
2023/02/03 04:30:40;;;;;;;2.10;1.52;;;;;;;7.90;100.00;101359.13;5055846;28;20228;-76
2023/02/03 04:33:07;;;;;;;3.85;2.00;;;;;;;7.91;100.00;101354.66;5056771;28;20238;-75
2023/02/03 04:35:33;;;;;;;2.60;1.83;;;;;;;7.90;100.00;101347.53;5056336;28;20279;-75
2023/02/03 04:38:01;;;;;;;2.35;1.60;;;;;;;7.86;100.00;101343.13;5055961;28;20287;-75
2023/02/03 04:40:28;;;;;;;1.80;1.58;;;;;;;7.80;100.00;101349.50;5056035;28;20258;-76
2023/02/03 04:42:54;;;;;;;2.22;1.40;;;;;;;7.76;100.00;101361.19;5057773;28;20185;-76
2023/02/03 04:45:21;;;;;;;2.40;2.03;;;;;;;7.75;100.00;101399.63;5058425;28;20282;-75
2023/02/03 04:47:51;;;;;;;2.55;1.90;;;;;;;7.64;100.00;101383.75;5056968;28;20204;-77
2023/02/03 04:50:18;;;;;;;2.85;1.73;;;;;;;7.61;100.00;101393.63;5056996;28;20684;-75
2023/02/03 04:52:45;;;;;;;2.47;1.92;;;;;;;7.59;100.00;101398.16;5057777;28;20303;-75
2023/02/03 04:55:12;;;;;;;2.80;2.00;;;;;;;7.60;100.00;101394.53;5059645;28;20592;-75
2023/02/03 04:57:39;;;;;;;2.90;2.00;;;;;;;7.52;100.00;101376.78;5059025;28;20266;-76
2023/02/03 05:00:07;;;;;;;2.90;2.03;;;;;;;7.48;100.00;101372.41;5059017;28;20211;-76
2023/02/03 05:02:33;;;;;;;3.35;2.15;;;;;;;7.51;100.00;101344.66;5059428;28;20257;-77
2023/02/03 05:05:00;;;;;;;2.78;1.88;;;;;;;7.49;100.00;101346.50;5062178;28;20719;-76
2023/02/03 05:07:26;;;;;;;3.28;1.85;;;;;;;7.43;100.00;101360.00;5060775;28;20203;-75
2023/02/03 05:09:53;;;;;;;2.75;2.13;;;;;;;7.45;100.00;101363.53;5059398;28;20323;-75
2023/02/03 05:12:21;;;;;;;2.58;1.90;;;;;;;7.43;100.00;101362.66;5060432;28;20230;-75
2023/02/03 05:14:47;;;;;;;7.57;2.47;;;;;;;7.42;100.00;101363.59;5060268;28;20580;-74
2023/02/03 05:17:14;;;;;;;4.05;1.92;;;;;;;7.45;100.00;101350.13;5060347;28;20289;-75
2023/02/03 05:19:40;;;;;;;4.25;2.15;;;;;;;7.52;100.00;101336.59;5059944;28;20211;-74
2023/02/03 05:22:09;;;;;;;4.15;3.10;;;;;;;7.55;100.00;101327.59;5059999;28;20223;-74
2023/02/03 05:24:35;;;;;;;4.40;2.15;;;;;;;7.59;100.00;101326.63;5060217;28;20212;-74
2023/02/03 05:27:02;;;;;;;2.10;1.63;;;;;;;7.62;100.00;101344.47;5061658;28;20216;-74
2023/02/03 05:29:30;;;;;;;3.83;1.85;;;;;;;7.71;100.00;101329.09;5059277;28;20272;-74
2023/02/03 05:31:56;;;;;;;2.25;1.67;;;;;;;7.75;100.00;101307.59;5060244;28;20228;-74
2023/02/03 05:34:23;;;;;;;3.03;1.70;;;;;;;7.79;100.00;101320.91;5058112;28;20207;-75
2023/02/03 05:36:50;;;;;;;2.15;1.58;;;;;;;7.78;100.00;101319.16;5057623;28;20271;-75
2023/02/03 05:39:16;;;;;;;6.28;2.10;;;;;;;7.86;100.00;101319.88;5058714;28;20296;-75
2023/02/03 05:41:52;;;;;;;2.40;1.92;;;;;;;7.82;100.00;101315.47;5059505;28;20238;-74
2023/02/03 05:44:19;;;;;;;3.20;2.42;;;;;;;7.81;100.00;101313.72;5059477;28;20204;-77
2023/02/03 05:46:47;;;;;;;3.30;2.40;;;;;;;7.78;100.00;101312.88;5057052;28;20205;-75
2023/02/03 05:49:13;;;;;;;4.35;1.80;;;;;;;7.75;100.00;101319.19;5056103;28;20311;-74
2023/02/03 05:51:40;;;;;;;2.90;2.33;;;;;;;7.79;100.00;101322.72;5056108;28;20687;-74
2023/02/03 05:54:07;;;;;;;4.15;2.72;;;;;;;7.76;100.00;101318.28;5056030;28;20209;-75
2023/02/03 05:56:34;;;;;;;7.82;2.25;;;;;;;7.78;100.00;101315.56;5056270;28;20200;-75
2023/02/03 05:59:01;;;;;;;3.33;2.30;;;;;;;7.81;100.00;101321.75;5055726;28;20573;-75
2023/02/03 06:01:28;;;;;;;4.18;2.65;;;;;;;7.80;100.00;101325.38;5056442;28;20228;-75
2023/02/03 06:03:55;;;;;;;2.80;1.90;;;;;;;7.80;100.00;101320.00;5059449;28;20208;-73
2023/02/03 06:06:22;;;;;;;4.75;1.80;;;;;;;7.77;100.00;101320.03;5064612;28;20645;-73
2023/02/03 06:08:51;;;;;;;2.38;1.88;;;;;;;7.80;100.00;101311.97;5061439;28;20275;-76
2023/02/03 06:11:17;;;;;;;2.55;2.10;;;;;;;7.80;100.00;101319.09;5051336;28;20231;-75
2023/02/03 06:13:44;;;;;;;3.75;2.35;;;;;;;7.88;100.00;101322.53;5058914;28;20195;-75
2023/02/03 06:16:11;;;;;;;2.78;2.13;;;;;;;7.97;100.00;101327.72;5054907;28;20228;-75
2023/02/03 06:18:37;;;;;;;3.38;2.20;;;;;;;7.95;100.00;101324.16;5052388;28;20200;-75
2023/02/03 06:21:05;;;;;;;2.05;1.55;;;;;;;7.98;100.00;101321.41;5053542;28;20223;-75
2023/02/03 06:23:32;;;;;;;3.58;2.20;;;;;;;8.00;100.00;101330.31;5053195;28;20231;-75
2023/02/03 06:25:59;;;;;;;4.20;2.28;;;;;;;8.03;100.00;101327.59;5058732;28;20188;-72
2023/02/03 06:28:32;;;;;;;2.30;1.88;;;;;;;8.02;100.00;101320.44;5065436;28;20176;-73
2023/02/03 06:30:58;;;;;;;3.63;1.90;;;;;;;8.01;100.00;101324.06;5047415;28;20227;-73
2023/02/03 06:33:25;;;;;;;5.53;2.88;;;;;;;7.98;100.00;101317.84;5066677;28;20215;-74
2023/02/03 06:35:51;;;;;;;3.17;2.25;;;;;;;7.96;100.00;101320.59;5066479;28;20260;-74
2023/02/03 06:38:19;;;;;;;2.88;2.08;;;;;;;7.90;100.00;101320.69;5062594;28;20195;-74
2023/02/03 06:40:46;;;;;;;2.95;2.30;;;;;;;7.90;100.00;101328.75;5060302;28;20308;-73
2023/02/03 06:43:13;;;;;;;4.32;2.38;;;;;;;7.91;100.00;101311.72;5057029;28;20261;-74
2023/02/03 06:45:40;;;;;;;3.40;2.25;;;;;;;7.92;100.00;101316.19;5062348;28;20212;-73
2023/02/03 06:48:07;;;;;;;42.95;25.35;;;;;;;8.25;100.00;101330.69;5060054;28;20650;-71
2023/02/03 06:50:35;;;;;;;3.92;2.50;;;;;;;8.14;100.00;101355.09;5063298;28;20220;-76
2023/02/03 06:53:01;;;;;;;3.33;2.33;;;;;;;8.04;100.00;101341.88;5062386;28;20199;-75
2023/02/03 06:55:29;;;;;;;3.72;2.78;;;;;;;8.04;100.00;101355.31;5061488;28;20688;-76
2023/02/03 06:57:56;;;;;;;3.00;2.42;;;;;;;8.02;100.00;101341.91;5061065;28;20205;-76
2023/02/03 07:00:23;;;;;;;5.63;2.60;;;;;;;7.98;100.00;101347.38;5061968;28;20208;-77
2023/02/03 07:02:53;;;;;;;3.25;2.40;;;;;;;8.00;100.00;101337.50;5062559;28;20191;-75
2023/02/03 07:05:20;;;;;;;4.18;2.53;;;;;;;7.96;100.00;101325.97;5060865;28;20194;-75
2023/02/03 07:07:46;;;;;;;3.42;2.50;;;;;;;7.97;100.00;101327.72;5059214;28;20218;-77
2023/02/03 07:10:13;;;;;;;3.60;2.20;;;;;;;7.97;100.00;101327.72;5059718;28;20212;-75
2023/02/03 07:12:41;;;;;;;3.88;2.60;;;;;;;8.02;100.00;101336.53;5058889;28;20644;-77
2023/02/03 07:15:08;;;;;;;3.40;2.90;;;;;;;7.98;100.00;101332.16;5058086;28;20336;-74
2023/02/03 07:17:35;;;;;;;2.90;2.25;;;;;;;8.07;100.00;101326.63;5057455;28;20207;-76
2023/02/03 07:20:01;;;;;;;2.63;2.33;;;;;;;8.08;100.00;101341.78;5059795;28;20215;-74
2023/02/03 07:22:28;;;;;;;3.65;2.60;;;;;;;8.10;100.00;101342.66;5059715;28;20661;-76
2023/02/03 07:24:54;;;;;;;3.33;2.50;;;;;;;8.13;100.00;101337.22;5057208;28;20539;-75
2023/02/03 07:27:21;;;;;;;2.60;2.03;;;;;;;8.15;100.00;101338.06;5057845;28;20643;-75
2023/02/03 07:29:49;;;;;;;3.08;2.33;;;;;;;8.25;100.00;101327.13;5056446;28;20559;-74
2023/02/03 07:32:15;;;;;;;5.82;2.33;;;;;;;8.26;100.00;101310.13;5056428;28;20227;-74
2023/02/03 07:34:42;;;;;;;4.20;2.63;;;;;;;8.27;100.00;101319.94;5063553;28;20265;-76
2023/02/03 07:37:08;;;;;;;4.10;2.63;;;;;;;8.31;100.00;101332.38;5063671;28;20204;-74
2023/02/03 07:39:35;;;;;;;2.30;1.80;;;;;;;8.30;100.00;101327.94;5052297;28;20268;-75
2023/02/03 07:42:01;;;;;;;2.63;1.50;;;;;;;8.36;100.00;101338.53;5039837;28;20232;-76
2023/02/03 07:44:28;;;;;;;2.63;2.13;;;;;;;8.38;100.00;101347.44;5039533;28;20205;-75
2023/02/03 07:46:56;;;;;;;4.40;1.50;;;;;;;8.40;100.00;101331.31;5040887;28;20215;-76
2023/02/03 07:49:22;;;;;;;2.80;1.50;;;;;;;8.43;100.00;101331.28;5038278;28;20260;-77
2023/02/03 07:51:49;;;;;;;2.58;1.75;;;;;;;8.49;100.00;101326.66;5050207;28;20348;-75
2023/02/03 07:54:15;;;;;;;4.05;2.17;;;;;;;8.50;100.00;101339.16;5059697;28;20309;-75
2023/02/03 07:56:42;;;;;;;3.95;1.80;;;;;;;8.53;100.00;101339.09;5057574;28;20212;-74
2023/02/03 07:59:09;;;;;;;3.33;1.70;;;;;;;8.57;100.00;101347.97;5056039;28;20218;-76
2023/02/03 08:01:35;;;;;;;4.45;2.33;;;;;;;8.57;100.00;101339.94;5043064;28;20218;-75
2023/02/03 08:04:04;;;;;;;1.80;1.35;;;;;;;8.59;100.00;101321.06;5054463;28;20205;-75
2023/02/03 08:06:31;;;;;;;4.70;1.75;;;;;;;8.63;100.00;101326.34;5054881;28;20214;-76
2023/02/03 08:08:57;;;;;;;3.22;1.55;;;;;;;8.84;100.00;101330.34;5055983;28;20316;-69
2023/02/03 08:11:24;;;;;;;5.95;2.20;;;;;;;9.12;100.00;101332.38;5042977;28;20268;-68
2023/02/03 08:13:50;;;;;;;34.70;23.45;;;;;;;9.09;100.00;101329.75;5036866;28;20694;-69
2023/02/03 08:16:19;;;;;;;7.85;4.82;;;;;;;9.03;100.00;101322.72;5039667;28;20660;-74
2023/02/03 08:18:45;;;;;;;3.03;1.45;;;;;;;8.84;100.00;101326.75;5051309;28;20225;-75
2023/02/03 08:21:13;;;;;;;2.47;1.60;;;;;;;8.76;100.00;101308.16;5054501;28;20652;-75
2023/02/03 08:23:40;;;;;;;1.75;1.40;;;;;;;8.75;100.00;101322.47;5035619;28;20208;-76
2023/02/03 08:26:06;;;;;;;2.95;1.60;;;;;;;8.76;100.00;101313.53;5035601;28;20205;-76
2023/02/03 08:28:33;;;;;;;2.00;1.40;;;;;;;8.76;100.00;101311.72;5034602;28;20209;-75
2023/02/03 08:31:00;;;;;;;3.75;1.63;;;;;;;8.76;100.00;101294.72;5034963;28;20229;-74
2023/02/03 08:33:27;;;;;;;2.65;1.65;;;;;;;8.79;100.00;101305.38;5019240;28;20193;-75
2023/02/03 08:35:55;;;;;;;4.25;1.48;;;;;;;8.90;100.00;101315.88;5068238;28;20721;-74
2023/02/03 08:38:23;;;;;;;1.77;1.20;;;;;;;8.92;100.00;101297.94;5063376;28;20201;-75
2023/02/03 08:40:50;;;;;;;2.17;1.25;;;;;;;8.93;100.00;101311.34;5063585;28;20294;-75
2023/02/03 08:43:16;;;;;;;3.03;1.60;;;;;;;9.02;100.00;101301.25;5060736;28;20212;-74
2023/02/03 08:45:43;;;;;;;3.50;1.90;;;;;;;9.07;100.00;101302.94;5061021;28;20197;-75
2023/02/03 08:48:10;;;;;;;2.53;1.60;;;;;;;9.16;100.00;101301.81;5060800;28;20208;-76
2023/02/03 08:50:36;;;;;;;2.30;2.10;;;;;;;9.17;100.00;101299.06;5057759;28;20224;-76
2023/02/03 08:53:03;;;;;;;2.20;1.45;;;;;;;9.24;100.00;101285.50;5055252;28;20287;-75
2023/02/03 08:55:31;;;;;;;2.25;1.60;;;;;;;9.31;100.00;101284.41;5055029;28;20215;-74
2023/02/03 08:57:57;;;;;;;2.70;1.75;;;;;;;9.31;100.00;101285.28;5054532;28;20291;-75
2023/02/03 09:00:24;;;;;;;2.58;1.50;;;;;;;9.34;100.00;101295.09;5055000;28;20243;-76
2023/02/03 09:02:50;;;;;;;2.95;1.45;;;;;;;9.32;100.00;101280.81;5055184;28;20671;-75
2023/02/03 09:05:17;;;;;;;3.35;1.80;;;;;;;9.39;100.00;101268.97;5055248;28;20205;-75
2023/02/03 09:07:44;;;;;;;2.50;1.45;;;;;;;9.48;100.00;101303.66;5058073;28;20201;-74
2023/02/03 09:10:11;;;;;;;2.20;1.33;;;;;;;9.53;100.00;101265.91;5056101;28;20291;-76
2023/02/03 09:12:39;;;;;;;1.95;1.15;;;;;;;9.52;100.00;101269.50;5055697;28;20709;-75
2023/02/03 09:15:06;;;;;;;2.72;1.30;;;;;;;9.50;100.00;101284.81;5056979;28;20209;-75
2023/02/03 09:17:33;;;;;;;1.83;1.30;;;;;;;9.49;100.00;101288.41;5036948;28;20211;-74
2023/02/03 09:19:59;;;;;;;1.60;1.30;;;;;;;9.51;100.00;101291.94;5056256;28;20681;-76
2023/02/03 09:22:26;;;;;;;2.95;1.23;;;;;;;9.49;100.00;101296.47;5059028;28;20245;-76
2023/02/03 09:24:53;;;;;;;2.72;1.20;;;;;;;9.44;100.00;101328.88;5058818;28;20637;-76
2023/02/03 09:27:19;;;;;;;3.03;1.30;;;;;;;9.44;100.00;101330.69;5057555;28;20274;-74
2023/02/03 09:29:47;;;;;;;2.83;1.35;;;;;;;9.47;100.00;101333.28;5054012;28;20277;-75
2023/02/03 09:32:14;;;;;;;2.58;1.20;;;;;;;9.47;100.00;101344.91;5056788;28;20708;-76
2023/02/03 09:34:41;;;;;;;1.75;1.23;;;;;;;9.49;100.00;101336.81;5063448;28;20233;-76
2023/02/03 09:37:07;;;;;;;3.00;1.60;;;;;;;9.49;100.00;101344.88;5063979;28;20704;-74
2023/02/03 09:39:34;;;;;;;4.65;1.33;;;;;;;9.52;100.00;101332.25;5063570;28;20258;-76
2023/02/03 09:42:19;;;;;;;3.28;1.40;;;;;;;9.55;100.00;101313.34;5061339;28;20248;-72
2023/02/03 09:44:58;;;;;;;2.30;1.20;;;;;;;9.63;100.00;101317.63;5044709;28;20280;-74
2023/02/03 09:47:28;;;;;;;2.30;1.45;;;;;;;9.63;100.00;101315.81;5056444;28;20193;-78
2023/02/03 09:49:58;;;;;;;3.53;1.50;;;;;;;9.64;100.00;101306.81;5036805;28;20215;-74
2023/02/03 09:52:27;;;;;;;3.40;1.00;;;;;;;9.65;100.00;101307.69;5054437;28;20751;-74
2023/02/03 09:54:59;;;;;;;1.50;1.00;;;;;;;9.69;100.00;101309.41;5053785;28;20905;-75
2023/02/03 09:57:27;;;;;;;2.10;1.17;;;;;;;9.77;100.00;101312.78;5040531;28;20204;-72
2023/02/03 09:59:58;;;;;;;6.40;1.45;;;;;;;9.75;100.00;101285.91;5034682;28;20228;-73
2023/02/03 10:02:44;;;;;;;2.58;1.20;;;;;;;9.79;100.00;101298.34;5033852;28;20224;-74
2023/02/03 10:05:18;;;;;;;2.78;1.00;;;;;;;9.81;100.00;101296.50;5034660;28;20693;-73
2023/02/03 10:07:56;;;;;;;4.07;1.38;;;;;;;9.82;100.00;101292.88;5033172;28;20217;-74
2023/02/03 10:10:31;;;;;;;5.38;1.80;;;;;;;9.81;100.00;101307.25;5038701;28;20689;-73
2023/02/03 10:13:18;;;;;;;2.38;1.25;;;;;;;9.84;100.00;101308.09;5053457;28;20204;-74
2023/02/03 10:15:59;;;;;;;3.15;1.15;;;;;;;9.78;100.00;101299.25;5054718;28;20674;-75
2023/02/03 10:18:31;;;;;;;2.10;1.20;;;;;;;9.82;100.00;101286.63;5052887;28;20204;-73
2023/02/03 10:21:02;;;;;;;4.80;1.10;;;;;;;9.81;100.00;101293.81;5057508;28;20319;-74
2023/02/03 10:23:32;;;;;;;1.60;1.20;;;;;;;9.85;100.00;101291.91;5054159;28;20536;-75
2023/02/03 10:26:03;;;;;;;2.15;1.40;;;;;;;9.87;100.00;101290.03;5053538;28;20364;-75
2023/02/03 10:28:31;;;;;;;2.45;1.10;;;;;;;9.87;100.00;101295.44;5048346;28;20193;-76
2023/02/03 10:31:01;;;;;;;2.15;1.20;;;;;;;9.85;100.00;101302.66;5044870;28;20221;-72
2023/02/03 10:33:30;;;;;;;3.15;1.45;;;;;;;9.82;100.00;101287.50;5053270;28;20199;-73
2023/02/03 10:36:07;;;;;;;3.45;0.90;;;;;;;9.87;100.00;101302.63;5034127;28;20198;-73
2023/02/03 10:38:44;;;;;;;4.05;1.35;;;;;;;9.85;100.00;101297.28;5033003;28;20288;-73
2023/02/03 10:41:10;;;;;;;5.25;1.15;;;;;;;9.86;100.00;101309.81;5033235;28;20243;-76
2023/02/03 10:46:21;;;;;;;2.63;1.40;;;;;;;9.77;100.00;101305.56;5030885;28;20293;-73
2023/02/03 10:48:49;;;;;;;2.40;1.13;;;;;;;9.79;100.00;101314.50;5033830;28;20277;-73
2023/02/03 10:51:21;;;;;;;5.85;1.30;;;;;;;9.79;100.00;101321.66;5034719;28;20229;-76
2023/02/03 10:53:51;;;;;;;1.92;0.90;;;;;;;9.81;100.00;101318.03;5033483;28;20675;-75
2023/02/03 10:56:20;;;;;;;3.97;1.90;;;;;;;9.82;100.00;101314.38;5042028;28;20247;-74
2023/02/03 10:58:48;;;;;;;1.70;0.90;;;;;;;9.81;100.00;101334.16;5052867;28;20659;-73
2023/02/03 11:01:18;;;;;;;3.55;1.40;;;;;;;9.82;100.00;101324.28;5053961;28;20725;-76
2023/02/03 11:03:57;;;;;;;2.40;1.30;;;;;;;9.86;100.00;101325.06;5053225;28;20231;-74
2023/02/03 11:06:24;;;;;;;3.45;1.50;;;;;;;9.85;100.00;101308.03;5061604;28;20181;-72
2023/02/03 11:08:51;;;;;;;2.20;1.25;;;;;;;9.87;100.00;101313.38;5075737;28;20248;-72
2023/02/03 11:11:21;;;;;;;2.15;1.48;;;;;;;9.88;100.00;101305.28;5074511;28;20228;-73
2023/02/03 11:13:52;;;;;;;2.13;1.00;;;;;;;9.92;100.00;101303.38;5075454;28;20208;-74
2023/02/03 11:16:19;;;;;;;2.00;0.95;;;;;;;9.95;100.00;101281.75;5074863;28;20204;-72
2023/02/03 11:18:57;;;;;;;19.70;13.00;;;;;;;10.14;100.00;101285.69;5073695;28;20190;-67
2023/02/03 11:21:27;;;;;;;4.70;2.25;;;;;;;10.26;100.00;101270.09;5067431;28;20219;-74
2023/02/03 11:24:01;;;;;;;2.22;1.15;;;;;;;10.20;100.00;101292.69;5066681;28;20197;-74
2023/02/03 11:26:32;;;;;;;3.03;1.20;;;;;;;10.13;100.00;101261.47;5067309;28;20192;-74
2023/02/03 11:29:01;;;;;;;2.40;1.10;;;;;;;10.03;100.00;101268.97;5061709;28;20201;-74
2023/02/03 11:31:29;;;;;;;2.97;1.25;;;;;;;10.07;100.00;101257.19;5061095;28;20304;-74
2023/02/03 11:34:01;;;;;;;1.50;0.90;;;;;;;10.00;100.00;101274.44;5063060;28;20287;-73